Terminal Aerodrome Forecast
Issued by NWS Twin Cities, MN

Home | Current Version | Previous Version | Text Only | Print | Product List | Glossary On
Versions: 1 2 3 4 5 6 7 8 9 10 11 12 13 14 15 16 17 18
538
FTUS43 KMPX 251129
TAFSTC
TAF
KSTC 251129Z 2512/2612 VRB03KT P6SM SKC
     FM251600 31007KT P6SM SKC
     FM260000 18003KT P6SM SCT100
     FM260900 17004KT P6SM VCSH BKN090=

USA.gov is the U.S. government's official web portal to all federal, state and local government web resources and services.